Weather History for Kimball, NE

Change the Weather History Date:

Saturday, December 29, 2012

  Actual Average (KSNY) Record (KSNY)
Temperature  
Mean Temperature 18 °F 28 °F  
Max Temperature 32 °F 41 °F 65 °F (2011)
Min Temperature 3 °F 16 °F -17 °F (1990)
Degree Days  
Heating Degree Days 48 37  
Month to date heating degree days 1054  
Since 1 July heating degree days 2476  
Moisture  
Dew Point 6 °F    
Average Humidity 67    
Maximum Humidity 81    
Minimum Humidity 49    
Precipitation  
Precipitation 0.00 in 0.02 in 0.22 in (1951)
Month to date precipitation 0.52  
Year to date precipitation 18.52  
Sea Level Pressure  
Sea Level Pressure 30.03 in    
Wind  
Wind Speed 10 mph (WSW)    
Max Wind Speed 15 mph    
Max Gust Speed -    
Visibility 10 miles    
Events      
T = Trace of Precipitation, MM = Missing Value Source: NWS Daily Summary

Daily Weather History Graph

Daily Weather History Graph

Search for Another Location

Airport:

Trip Planner

Search our weather history database for the weather conditions in past years. The results will help you decide how hot, cold, wet, or windy it might be!

Date:

Astronomy

Dec. 29, 2012 Rise Set
Actual Time 8:19 AM CST 5:34 PM CST
Civil Twilight 7:48 AM CST 6:05 PM CST
Nautical Twilight 7:13 AM CST 6:40 PM CST
Astronomical Twilight 6:40 AM CST 7:13 PM CST
Moon 7:10 PM CST (12/29) 8:53 AM CST (12/29)
Length of Visible Light 10h 16m
Length of Day
9h 14m
Full, 98% of the Moon is Illuminated
Dec 29
Full
Jan 4
Last Quarter
Jan 11
New
Jan 18
First Quarter
Jan 26
Full

Hourly Weather History & Observations

Time (CST) Temp. Windchill Dew Point Humidity Pressure Visibility Wind Dir Wind Speed Gust Speed Precip Events Conditions
12:15 AM 16.7 °F 2.0 °F 9.3 °F 73% 30.05 in 10.0 mi NW 15.0 mph - N/A   Clear
12:35 AM 17.2 °F 3.3 °F 9.1 °F 71% 30.05 in 10.0 mi NW 13.8 mph - N/A   Clear
12:55 AM 16.0 °F 1.1 °F 8.4 °F 72% 30.06 in 10.0 mi WNW 15.0 mph - N/A   Clear
1:15 AM 14.9 °F -0.3 °F 7.9 °F 74% 30.06 in 10.0 mi WNW 15.0 mph - N/A   Clear
1:35 AM 14.4 °F 1.6 °F 7.0 °F 73% 30.05 in 10.0 mi WNW 10.4 mph - N/A   Clear
1:55 AM 11.7 °F -0.9 °F 5.0 °F 75% 30.06 in 10.0 mi WNW 9.2 mph - N/A   Clear
2:15 AM 9.5 °F -2.6 °F 3.9 °F 78% 30.06 in 10.0 mi WNW 8.1 mph - N/A   Clear
2:35 AM 5.0 °F -8.1 °F -0.4 °F 78% 30.06 in 10.0 mi West 8.1 mph - N/A   Clear
2:55 AM 3.2 °F -13.9 °F -1.5 °F 81% 30.07 in 10.0 mi WSW 12.7 mph - N/A   Clear
3:15 AM 7.9 °F -9.3 °F 2.1 °F 77% 30.07 in 10.0 mi West 15.0 mph - N/A   Clear
3:35 AM 10.0 °F -6.5 °F 3.0 °F 73% 30.08 in 10.0 mi West 15.0 mph - N/A   Clear
3:55 AM 10.0 °F -5.9 °F 2.5 °F 72% 30.08 in 10.0 mi West 13.8 mph - N/A   Clear
4:15 AM 7.0 °F -7.5 °F 0.3 °F 74% 30.08 in 10.0 mi West 10.4 mph - N/A   Clear
4:35 AM 5.0 °F -9.1 °F -1.1 °F 76% 30.08 in 10.0 mi WSW 9.2 mph - N/A   Clear
4:55 AM 3.4 °F -12.0 °F -2.0 °F 78% 30.08 in 10.0 mi West 10.4 mph - N/A   Clear
5:15 AM 3.4 °F -7.5 °F -2.9 °F 75% 30.07 in 10.0 mi West 5.8 mph - N/A   Clear
5:35 AM 9.5 °F -5.9 °F 2.1 °F 72% 30.07 in 10.0 mi West 12.7 mph - N/A   Clear
5:55 AM 6.8 °F -8.6 °F -0.9 °F 71% 30.08 in 10.0 mi West 11.5 mph - N/A   Clear
6:15 AM 9.9 °F -5.5 °F 1.0 °F 68% 30.08 in 10.0 mi West 12.7 mph - N/A   Clear
6:35 AM 7.5 °F -7.7 °F -0.4 °F 70% 30.07 in 10.0 mi West 11.5 mph - N/A   Clear
6:55 AM 10.0 °F -6.5 °F 1.2 °F 68% 30.08 in 10.0 mi West 15.0 mph - N/A   Clear
7:15 AM 11.1 °F -5.1 °F 1.4 °F 65% 30.09 in 10.0 mi West 15.0 mph - N/A   Clear
7:35 AM 10.2 °F -3.5 °F 0.9 °F 66% 30.09 in 10.0 mi West 10.4 mph - N/A   Clear
7:55 AM 5.4 °F -8.6 °F -2.2 °F 71% 30.10 in 10.0 mi West 9.2 mph - N/A   Clear
8:15 AM 4.1 °F -12.0 °F -3.5 °F 71% 30.11 in 10.0 mi WSW 11.5 mph - N/A   Clear
8:35 AM 5.4 °F -8.6 °F -3.1 °F 68% 30.10 in 10.0 mi West 9.2 mph - N/A   Clear
8:55 AM 5.4 °F -9.6 °F -3.3 °F 68% 30.10 in 10.0 mi West 10.4 mph - N/A   Clear
9:15 AM 6.6 °F -10.2 °F -2.7 °F 66% 30.10 in 10.0 mi WSW 13.8 mph - N/A   Clear
9:35 AM 6.6 °F -5.0 °F -2.6 °F 66% 30.10 in 10.0 mi WSW 6.9 mph - N/A   Clear
9:55 AM 9.9 °F 0.2 °F -0.0 °F 64% 30.11 in 10.0 mi West 5.8 mph - N/A   Clear
10:15 AM 13.1 °F -0.7 °F 2.1 °F 62% 30.11 in 10.0 mi WSW 11.5 mph - N/A   Clear
10:35 AM 17.1 °F 6.6 °F 4.6 °F 58% 30.13 in 10.0 mi WSW 8.1 mph - N/A   Clear
10:55 AM 18.7 °F 8.6 °F 5.9 °F 58% 30.11 in 10.0 mi WSW 8.1 mph - N/A   Clear
11:15 AM 20.5 °F 10.0 °F 7.7 °F 58% 30.12 in 10.0 mi WSW 9.2 mph - N/A   Clear
11:35 AM 22.1 °F 12.8 °F 8.8 °F 57% 30.12 in 10.0 mi WSW 8.1 mph - N/A   Clear
11:55 AM 23.5 °F 16.4 °F 9.7 °F 56% 30.10 in 10.0 mi West 5.8 mph - N/A   Clear
12:15 PM 25.7 °F 20.1 °F 10.4 °F 52% 30.10 in 10.0 mi West 4.6 mph - N/A   Clear
12:35 PM 27.9 °F 19.1 °F 11.1 °F 50% 30.09 in 10.0 mi WSW 9.2 mph - N/A   Clear
12:55 PM 28.6 °F 24.8 °F 11.5 °F 49% 30.08 in 10.0 mi WSW 3.5 mph - N/A   Clear
1:15 PM 29.3 °F 25.6 °F 13.1 °F 51% 30.06 in 10.0 mi SW 3.5 mph - N/A   Clear
1:35 PM 30.4 °F - 14.0 °F 51% 30.04 in 10.0 mi Calm Calm - N/A   Clear
1:55 PM 30.2 °F 26.7 °F 14.9 °F 53% 30.03 in 10.0 mi South 3.5 mph - N/A   Clear
2:15 PM 31.1 °F 26.4 °F 16.0 °F 54% 30.03 in 10.0 mi South 4.6 mph - N/A   Clear
2:35 PM 30.9 °F 26.2 °F 16.3 °F 55% 30.02 in 10.0 mi SSW 4.6 mph - N/A   Clear
2:55 PM 32.0 °F 28.7 °F 16.0 °F 52% 30.02 in 10.0 mi South 3.5 mph - N/A   Clear
3:15 PM 32.5 °F - 15.8 °F 50% 30.02 in 10.0 mi Calm Calm - N/A   Clear
3:35 PM 32.0 °F 27.5 °F 14.9 °F 49% 30.02 in 10.0 mi South 4.6 mph - N/A   Clear
3:55 PM 31.1 °F 27.7 °F 15.6 °F 53% 30.02 in 10.0 mi South 3.5 mph - N/A   Clear
4:15 PM 29.8 °F 23.0 °F 13.8 °F 51% 30.02 in 10.0 mi South 6.9 mph - N/A   Clear
4:35 PM 26.6 °F 17.5 °F 17.2 °F 68% 30.02 in 10.0 mi South 9.2 mph - N/A   Clear
5:15 PM 19.9 °F 12.1 °F 12.9 °F 74% 30.01 in 10.0 mi SSW 5.8 mph - N/A   Clear
5:35 PM 18.0 °F 9.8 °F 10.8 °F 73% 30.00 in 10.0 mi SW 5.8 mph - N/A   Clear
5:55 PM 17.2 °F 7.8 °F 9.1 °F 71% 29.99 in 10.0 mi SSW 6.9 mph - N/A   Clear
6:15 PM 14.7 °F 4.8 °F 7.2 °F 72% 29.99 in 10.0 mi SSW 6.9 mph - N/A   Clear
6:35 PM 12.6 °F 1.1 °F 6.1 °F 75% 29.98 in 10.0 mi SSW 8.1 mph - N/A   Clear
6:55 PM 16.7 °F 6.2 °F 6.4 °F 64% 29.98 in 10.0 mi South 8.1 mph - N/A   Clear
7:15 PM 14.0 °F 2.9 °F 5.9 °F 70% 29.97 in 10.0 mi South 8.1 mph - N/A   Clear
7:35 PM 16.2 °F 5.5 °F 6.8 °F 67% 29.96 in 10.0 mi South 8.1 mph - N/A   Clear
7:55 PM 15.6 °F 5.9 °F 6.8 °F 68% 29.96 in 10.0 mi South 6.9 mph - N/A   Clear
8:15 PM 16.5 °F 11.0 °F 7.3 °F 67% 29.96 in 10.0 mi SSW 3.5 mph - N/A   Clear
8:35 PM 18.9 °F 13.7 °F 9.0 °F 65% 29.95 in 10.0 mi SSW 3.5 mph - N/A   Clear
8:55 PM 17.1 °F - 8.6 °F 69% 29.94 in 10.0 mi Calm Calm - N/A   Clear
9:15 PM 19.0 °F 12.3 °F 10.4 °F 69% 29.93 in 10.0 mi South 4.6 mph - N/A   Clear
9:35 PM 18.1 °F 12.9 °F 10.4 °F 72% 29.92 in 10.0 mi South 3.5 mph - N/A   Clear
9:55 PM 18.0 °F 9.8 °F 10.4 °F 72% 29.91 in 10.0 mi SSE 5.8 mph - N/A   Clear
10:15 PM 15.3 °F 5.4 °F 9.3 °F 77% 29.91 in 10.0 mi South 6.9 mph - N/A   Clear
10:35 PM 14.9 °F 6.1 °F 8.2 °F 75% 29.90 in 10.0 mi South 5.8 mph - N/A   Clear
10:55 PM 17.2 °F 10.2 °F 8.6 °F 69% 29.90 in 10.0 mi SSW 4.6 mph - N/A   Clear
11:15 PM 14.5 °F 3.6 °F 7.2 °F 73% 29.90 in 10.0 mi South 8.1 mph - N/A   Clear
11:35 PM 12.0 °F 1.5 °F 5.5 °F 75% 29.89 in 10.0 mi South 6.9 mph - N/A   Clear
11:55 PM 10.0 °F 1.8 °F 4.1 °F 77% 29.90 in 10.0 mi WNW 4.6 mph - N/A   Clear